Time;durP1;ratioP1;P1;durP2;ratioP2;P2;SDS_P1;SDS_P2;PMS_P1;PMS_P2;Temp;Humidity;BMP_temperature;BMP_pressure;BME280_temperature;BME280_humidity;BME280_pressure;Samples;Min_cycle;Max_cycle;Signal;HPM_P1;HPM_P2
2023/09/28 00:00:35;;;;;;;17.40;10.20;;;;;;;17.05;60.39;101143.21;110584;1210;98955;-61
2023/09/28 00:02:56;;;;;;;19.90;10.70;;;;;;;17.01;60.61;101145.24;110873;1214;139024;-61
2023/09/28 00:05:21;;;;;;;20.30;11.50;;;;;;;16.99;60.71;101144.16;110616;1209;99059;-61
2023/09/28 00:07:48;;;;;;;29.40;11.70;;;;;;;16.97;60.79;101142.86;110707;1212;98959;-61
2023/09/28 00:10:15;;;;;;;19.70;10.70;;;;;;;16.93;61.00;101144.30;110469;1210;139488;-61
2023/09/28 00:12:48;;;;;;;25.20;12.00;;;;;;;16.92;61.09;101146.59;110649;1209;98727;-61
2023/09/28 00:15:15;;;;;;;19.20;11.80;;;;;;;16.90;61.25;101146.68;110525;1209;141362;-60
2023/09/28 00:17:40;;;;;;;19.90;11.20;;;;;;;16.88;61.31;101148.42;110751;1215;99044;-61
2023/09/28 00:20:28;;;;;;;20.40;11.40;;;;;;;16.87;61.40;101146.52;110657;1214;99079;-61
2023/09/28 00:22:54;;;;;;;20.10;11.10;;;;;;;16.84;61.62;101141.61;110527;1209;139861;-61
2023/09/28 00:25:21;;;;;;;23.60;12.00;;;;;;;16.82;61.62;101142.48;110719;1213;98995;-61
2023/09/28 00:27:55;;;;;;;20.70;11.90;;;;;;;16.80;61.90;101142.23;110500;1209;139502;-61
2023/09/28 00:30:22;;;;;;;21.80;11.40;;;;;;;16.77;61.74;101144.93;110758;1215;100060;-61
2023/09/28 00:32:49;;;;;;;22.50;11.10;;;;;;;16.75;62.08;101142.02;110516;1210;140036;-61
2023/09/28 00:35:16;;;;;;;24.70;11.70;;;;;;;16.72;62.19;101144.72;110666;1213;99082;-61
2023/09/28 00:37:42;;;;;;;20.50;11.10;;;;;;;16.70;62.17;101142.73;110901;1209;97838;-61
2023/09/28 00:40:16;;;;;;;26.60;12.00;;;;;;;16.66;62.29;101139.30;110600;1214;140647;-61
2023/09/28 00:42:43;;;;;;;20.70;11.40;;;;;;;16.63;62.46;101141.48;110725;1213;99918;-60
2023/09/28 00:45:08;;;;;;;21.90;11.00;;;;;;;16.59;62.63;101141.15;110523;1210;141496;-61
2023/09/28 00:47:36;;;;;;;17.00;11.20;;;;;;;16.56;62.65;101135.38;110637;1210;99006;-61
2023/09/28 00:50:03;;;;;;;23.70;12.00;;;;;;;16.53;62.85;101133.23;110720;1209;98965;-61
2023/09/28 00:52:30;;;;;;;27.70;11.80;;;;;;;16.51;62.91;101132.99;110490;1213;141135;-61
2023/09/28 00:54:56;;;;;;;17.50;11.00;;;;;;;16.48;62.94;101128.62;110756;1210;102001;-61
2023/09/28 00:57:22;;;;;;;20.30;12.20;;;;;;;16.45;63.09;101125.92;110530;1212;139234;-60
2023/09/28 00:59:47;;;;;;;23.50;11.30;;;;;;;16.42;63.33;101120.54;110614;1209;98947;-61
2023/09/28 01:02:14;;;;;;;26.80;11.40;;;;;;;16.40;63.36;101122.66;110710;1209;99029;-61
2023/09/28 01:04:39;;;;;;;22.70;11.40;;;;;;;16.37;63.45;101121.76;110474;1209;139630;-61
2023/09/28 01:07:05;;;;;;;18.00;11.30;;;;;;;16.35;63.74;101124.20;110723;1210;99007;-61
2023/09/28 01:09:30;;;;;;;20.60;12.60;;;;;;;16.33;63.79;101125.41;110607;1212;139580;-61
2023/09/28 01:11:57;;;;;;;20.50;11.20;;;;;;;16.31;63.89;101122.48;110608;1215;99074;-61
2023/09/28 01:14:23;;;;;;;23.20;12.90;;;;;;;16.28;63.85;101118.84;110645;1210;98977;-61
2023/09/28 01:16:48;;;;;;;25.70;12.10;;;;;;;16.27;63.89;101117.68;110619;1209;139196;-61
2023/09/28 01:19:14;;;;;;;18.50;11.60;;;;;;;16.26;64.07;101116.11;110689;1209;99625;-61
2023/09/28 01:21:40;;;;;;;22.30;11.90;;;;;;;16.23;64.21;101114.24;110526;1214;139046;-60
2023/09/28 01:24:06;;;;;;;22.00;13.20;;;;;;;16.21;64.12;101112.59;110915;1209;99946;-61
2023/09/28 01:26:32;;;;;;;23.40;12.30;;;;;;;16.20;64.33;101113.00;110756;1213;112990;-61
2023/09/28 01:28:58;;;;;;;31.70;12.90;;;;;;;16.18;64.36;101110.97;110615;1209;139727;-61
2023/09/28 01:31:23;;;;;;;25.00;12.30;;;;;;;16.16;64.63;101104.96;110692;1214;98879;-61
2023/09/28 01:33:49;;;;;;;25.10;12.30;;;;;;;16.14;64.59;101105.26;110559;1209;140205;-61
2023/09/28 01:36:14;;;;;;;18.40;12.10;;;;;;;16.12;64.68;101104.48;110586;1221;99036;-61
2023/09/28 01:38:47;;;;;;;23.20;12.70;;;;;;;16.09;64.67;101100.71;110588;1214;141211;-61
2023/09/28 01:41:12;;;;;;;26.70;12.50;;;;;;;16.07;64.84;101102.46;110524;1209;98954;-61
2023/09/28 01:43:37;;;;;;;23.80;12.10;;;;;;;16.05;64.92;101100.54;110708;1215;99038;-61
2023/09/28 01:46:03;;;;;;;19.60;12.50;;;;;;;16.04;65.03;101097.41;110530;1209;139392;-60
2023/09/28 01:48:28;;;;;;;23.30;13.90;;;;;;;16.02;65.20;101099.46;110573;1210;99040;-61
2023/09/28 01:50:54;;;;;;;22.30;13.00;;;;;;;16.01;65.22;101094.88;110565;1213;139358;-61
2023/09/28 01:53:19;;;;;;;24.60;13.30;;;;;;;15.98;65.39;101092.67;110676;1209;99370;-61
2023/09/28 01:55:46;;;;;;;24.20;12.50;;;;;;;15.98;65.42;101092.01;110626;1209;101940;-61
2023/09/28 01:58:12;;;;;;;23.20;12.90;;;;;;;15.97;65.49;101090.44;110545;1209;140523;-61
2023/09/28 02:00:37;;;;;;;22.70;13.50;;;;;;;15.95;65.54;101090.34;110692;1209;98925;-61
2023/09/28 02:03:04;;;;;;;23.60;13.00;;;;;;;15.93;65.60;101089.94;110563;1215;139952;-61
2023/09/28 02:05:32;;;;;;;25.40;14.70;;;;;;;15.90;65.72;101088.98;110849;1209;99015;-61
2023/09/28 02:07:58;;;;;;;28.90;13.80;;;;;;;15.88;65.74;101094.14;110585;1209;99020;-61
2023/09/28 02:10:24;;;;;;;24.80;14.50;;;;;;;15.87;65.81;101092.08;110520;1212;139304;-61
2023/09/28 02:12:50;;;;;;;20.40;13.10;;;;;;;15.84;65.86;101093.48;110742;1215;98903;-61
2023/09/28 02:15:16;;;;;;;22.10;13.30;;;;;;;15.82;65.94;101090.55;110596;1214;139228;-61
2023/09/28 02:17:42;;;;;;;25.50;14.00;;;;;;;15.80;65.91;101086.90;110673;1215;99025;-61
2023/09/28 02:20:09;;;;;;;22.00;13.50;;;;;;;15.78;66.18;101083.77;110506;1209;99015;-61
2023/09/28 02:22:35;;;;;;;22.30;13.40;;;;;;;15.77;66.26;101083.13;110660;1209;139623;-61
2023/09/28 02:25:00;;;;;;;22.70;13.50;;;;;;;15.73;66.30;101081.33;110680;1209;99040;-61
2023/09/28 02:27:25;;;;;;;25.90;14.70;;;;;;;15.71;66.33;101081.46;110606;1213;139651;-61
2023/09/28 02:29:52;;;;;;;24.10;13.70;;;;;;;15.69;66.52;101082.48;110643;1211;98974;-61
2023/09/28 02:32:17;;;;;;;26.00;14.50;;;;;;;15.68;66.71;101081.10;110681;1214;100074;-61
2023/09/28 02:34:42;;;;;;;18.10;13.90;;;;;;;15.67;66.67;101084.42;110630;1209;139821;-61
2023/09/28 02:37:07;;;;;;;26.10;14.10;;;;;;;15.65;66.85;101084.35;110623;1225;98994;-61
2023/09/28 02:39:34;;;;;;;34.50;16.90;;;;;;;15.63;66.93;101083.38;110594;1213;139658;-61
2023/09/28 02:42:00;;;;;;;26.80;14.30;;;;;;;15.63;66.97;101085.55;110603;1209;100259;-61
2023/09/28 02:44:25;;;;;;;26.80;16.40;;;;;;;15.62;67.04;101083.97;110676;1213;99037;-61
2023/09/28 02:46:50;;;;;;;25.30;15.50;;;;;;;15.62;67.29;101083.83;110567;1210;139617;-61
2023/09/28 02:49:16;;;;;;;28.00;15.50;;;;;;;15.61;67.31;101084.04;110757;1210;99078;-61
2023/09/28 02:51:42;;;;;;;30.20;15.50;;;;;;;15.61;67.35;101081.20;110637;1214;139643;-62
2023/09/28 02:54:08;;;;;;;28.60;16.10;;;;;;;15.60;67.41;101081.97;110706;1209;98947;-61
2023/09/28 02:56:33;;;;;;;27.40;17.00;;;;;;;15.57;67.52;101081.95;110485;1209;140081;-61
2023/09/28 02:58:59;;;;;;;31.70;16.60;;;;;;;15.55;67.58;101082.04;110899;1214;99021;-61
2023/09/28 03:01:26;;;;;;;29.80;17.40;;;;;;;15.54;67.73;101082.26;110633;1213;99056;-61
2023/09/28 03:03:53;;;;;;;27.50;16.80;;;;;;;15.53;67.78;101083.96;110542;1214;139703;-60
2023/09/28 03:06:20;;;;;;;30.70;17.70;;;;;;;15.52;67.89;101080.92;110651;1210;99104;-62
2023/09/28 03:08:46;;;;;;;27.70;16.50;;;;;;;15.51;67.98;101082.43;110559;1214;139840;-61
2023/09/28 03:11:12;;;;;;;31.20;17.60;;;;;;;15.50;68.01;101086.98;110782;1214;99061;-61
2023/09/28 03:13:39;;;;;;;25.20;15.80;;;;;;;15.49;68.27;101082.91;110688;1213;99138;-61
2023/09/28 03:16:04;;;;;;;28.10;17.20;;;;;;;15.48;68.30;101089.80;110562;1210;139996;-61
2023/09/28 03:18:30;;;;;;;33.20;18.30;;;;;;;15.46;68.37;101083.26;110745;1209;99035;-60
2023/09/28 03:20:55;;;;;;;35.80;17.80;;;;;;;15.45;68.52;101088.90;110466;1214;140654;-61
2023/09/28 03:23:20;;;;;;;27.40;17.40;;;;;;;15.43;68.55;101087.38;110712;1215;98975;-61
2023/09/28 03:25:45;;;;;;;25.30;17.50;;;;;;;15.42;68.76;101084.43;110741;1208;99046;-61
2023/09/28 03:28:11;;;;;;;28.80;17.00;;;;;;;15.40;68.77;101084.33;110602;1211;139711;-60
2023/09/28 03:30:37;;;;;;;32.90;17.50;;;;;;;15.38;68.70;101086.08;110717;1214;98994;-61
2023/09/28 03:33:02;;;;;;;34.40;17.90;;;;;;;15.36;68.95;101085.48;110588;1209;139989;-61
2023/09/28 03:35:27;;;;;;;30.30;18.50;;;;;;;15.33;69.07;101085.98;110713;1209;100087;-61
2023/09/28 03:37:58;;;;;;;31.40;19.70;;;;;;;15.31;69.17;101080.00;110750;1209;99082;-61
2023/09/28 03:40:24;;;;;;;33.50;18.70;;;;;;;15.29;69.11;101082.83;110631;1214;139794;-61
2023/09/28 03:42:50;;;;;;;35.50;18.50;;;;;;;15.25;69.20;101085.52;110729;1209;99043;-61
2023/09/28 03:45:20;;;;;;;29.30;18.40;;;;;;;15.23;69.42;101085.63;110638;1209;139795;-61
2023/09/28 03:47:48;;;;;;;34.10;18.80;;;;;;;15.21;69.53;101086.29;110772;1209;107476;-61
2023/09/28 03:50:14;;;;;;;32.90;19.80;;;;;;;15.19;69.61;101087.48;110627;1214;99021;-61
2023/09/28 03:52:41;;;;;;;29.50;18.00;;;;;;;15.15;69.58;101086.26;110622;1208;140608;-61
2023/09/28 03:55:09;;;;;;;39.20;19.60;;;;;;;15.13;69.74;101084.40;110796;1214;100439;-61
2023/09/28 03:57:34;;;;;;;29.90;19.80;;;;;;;15.11;69.93;101085.58;110501;1209;139712;-61
2023/09/28 04:00:00;;;;;;;31.30;18.10;;;;;;;15.09;69.91;101084.27;110722;1222;98978;-62
2023/09/28 04:02:27;;;;;;;29.80;18.60;;;;;;;15.06;69.93;101087.11;110710;1214;98968;-61
2023/09/28 04:04:53;;;;;;;30.70;18.90;;;;;;;15.04;70.07;101083.82;111056;1209;138842;-60
2023/09/28 04:07:18;;;;;;;30.20;19.10;;;;;;;15.02;70.13;101083.02;110665;1209;99053;-61
2023/09/28 04:09:44;;;;;;;30.50;19.50;;;;;;;15.00;70.25;101082.61;110609;1210;139654;-61
2023/09/28 04:12:09;;;;;;;33.60;20.10;;;;;;;14.99;70.38;101077.10;110609;1209;100477;-61
2023/09/28 04:14:34;;;;;;;33.80;20.00;;;;;;;14.97;70.43;101076.48;110682;1213;139827;-61
2023/09/28 04:16:59;;;;;;;29.60;18.30;;;;;;;14.94;70.52;101071.03;110608;1209;99637;-61
2023/09/28 04:19:24;;;;;;;33.70;19.70;;;;;;;14.92;70.59;101072.79;110754;1209;99028;-61
2023/09/28 04:21:50;;;;;;;32.00;19.10;;;;;;;14.89;70.70;101067.38;110565;1214;139582;-61
2023/09/28 04:24:15;;;;;;;32.10;20.60;;;;;;;14.85;70.82;101068.81;110695;1209;98958;-61
2023/09/28 04:26:41;;;;;;;33.10;19.90;;;;;;;14.84;70.85;101067.48;110589;1209;140591;-61
2023/09/28 04:29:06;;;;;;;32.30;20.00;;;;;;;14.81;70.94;101066.73;110593;1209;98965;-61
2023/09/28 04:31:31;;;;;;;31.70;18.70;;;;;;;14.79;71.08;101060.20;110728;1209;99041;-61
2023/09/28 04:33:57;;;;;;;35.40;20.70;;;;;;;14.77;71.19;101064.04;110519;1214;140598;-61
2023/09/28 04:36:24;;;;;;;37.50;20.40;;;;;;;14.75;71.37;101065.61;110733;1209;98985;-61
2023/09/28 04:38:49;;;;;;;32.80;22.10;;;;;;;14.74;71.45;101066.40;110793;1209;139915;-61
2023/09/28 04:41:16;;;;;;;33.80;19.80;;;;;;;14.73;71.56;101068.98;110675;1214;100044;-61
2023/09/28 04:43:41;;;;;;;36.60;20.30;;;;;;;14.72;71.55;101065.06;110695;1212;99095;-61
2023/09/28 04:46:07;;;;;;;30.40;20.00;;;;;;;14.70;71.67;101063.55;110609;1209;141276;-62
2023/09/28 04:48:32;;;;;;;36.90;20.00;;;;;;;14.70;71.80;101064.66;110601;1214;112241;-61
2023/09/28 04:50:58;;;;;;;35.80;20.80;;;;;;;14.68;71.74;101066.39;110509;1215;140134;-61
2023/09/28 04:53:23;;;;;;;32.80;20.20;;;;;;;14.67;71.99;101067.66;110420;1209;100490;-62
2023/09/28 04:55:49;;;;;;;38.10;21.40;;;;;;;14.67;72.16;101070.18;110250;1214;99573;-62
2023/09/28 04:58:14;;;;;;;35.30;21.50;;;;;;;14.67;72.18;101066.77;110450;1214;141345;-61
2023/09/28 05:00:39;;;;;;;30.40;19.80;;;;;;;14.67;72.26;101068.58;110472;1209;99146;-61
2023/09/28 05:03:04;;;;;;;37.80;21.70;;;;;;;14.67;72.37;101066.96;110281;1210;140650;-62
2023/09/28 05:05:32;;;;;;;33.50;20.10;;;;;;;14.67;72.57;101069.31;110532;1209;97803;-62
2023/09/28 05:07:58;;;;;;;36.60;20.50;;;;;;;14.66;72.67;101070.26;110687;1214;100505;-61
2023/09/28 05:10:23;;;;;;;31.20;20.20;;;;;;;14.66;72.79;101065.21;110539;1211;140114;-62
2023/09/28 05:12:48;;;;;;;34.20;21.10;;;;;;;14.66;72.97;101064.30;110710;1214;99022;-61
2023/09/28 05:15:15;;;;;;;33.60;20.70;;;;;;;14.67;73.14;101067.14;110618;1209;139856;-62
2023/09/28 05:17:40;;;;;;;41.70;20.90;;;;;;;14.68;73.18;101067.27;110685;1209;98229;-61
2023/09/28 05:20:07;;;;;;;32.90;21.40;;;;;;;14.69;73.30;101065.76;110718;1212;98987;-61
2023/09/28 05:22:33;;;;;;;39.80;21.90;;;;;;;14.71;73.40;101067.30;110659;1212;140944;-61
2023/09/28 05:24:59;;;;;;;36.00;22.90;;;;;;;14.72;73.51;101065.98;110798;1209;97760;-61
2023/09/28 05:27:25;;;;;;;37.00;21.10;;;;;;;14.73;73.57;101069.16;110660;1213;139836;-62
2023/09/28 05:29:50;;;;;;;37.80;22.10;;;;;;;14.74;73.67;101067.65;110709;1209;99639;-62
2023/09/28 05:32:15;;;;;;;38.00;20.80;;;;;;;14.75;73.72;101067.42;110791;1209;98988;-62
2023/09/28 05:34:40;;;;;;;34.40;20.90;;;;;;;14.76;73.87;101067.19;110726;1214;139272;-62
2023/09/28 05:37:05;;;;;;;31.10;20.30;;;;;;;14.78;73.95;101065.82;110752;1208;99097;-63
2023/09/28 05:39:31;;;;;;;41.70;21.30;;;;;;;14.82;74.05;101074.23;110752;1213;140775;-63
2023/09/28 05:41:56;;;;;;;43.70;21.60;;;;;;;14.85;74.20;101075.51;110607;1209;99467;-62
2023/09/28 05:44:21;;;;;;;41.90;22.60;;;;;;;14.86;74.14;101076.71;110792;1209;99030;-62
2023/09/28 05:46:47;;;;;;;41.70;22.30;;;;;;;14.87;74.26;101078.60;110509;1214;143305;-62
2023/09/28 05:49:13;;;;;;;39.40;23.60;;;;;;;14.91;74.50;101076.63;110558;1214;98974;-62
2023/09/28 05:51:38;;;;;;;47.70;22.20;;;;;;;14.92;74.44;101075.45;110652;1212;140842;-62
2023/09/28 05:54:03;;;;;;;38.80;21.00;;;;;;;14.94;74.45;101075.20;110680;1209;99022;-63
2023/09/28 05:56:29;;;;;;;40.10;20.90;;;;;;;14.97;74.54;101075.77;110717;1209;99024;-63
2023/09/28 05:58:55;;;;;;;41.90;21.10;;;;;;;15.01;74.70;101080.05;110510;1209;138970;-62
2023/09/28 06:01:22;;;;;;;32.90;20.50;;;;;;;15.07;74.70;101081.67;110667;1213;102088;-62
2023/09/28 06:03:47;;;;;;;43.20;21.60;;;;;;;15.11;74.79;101081.63;110525;1213;140995;-62
2023/09/28 06:06:15;;;;;;;29.70;20.90;;;;;;;15.15;74.85;101080.14;110791;1209;99130;-62
2023/09/28 06:08:40;;;;;;;36.20;21.20;;;;;;;15.18;74.86;101080.15;110601;1211;142189;-62
2023/09/28 06:11:05;;;;;;;40.00;22.30;;;;;;;15.22;75.01;101079.56;110700;1209;99142;-62
2023/09/28 06:13:31;;;;;;;45.90;22.00;;;;;;;15.27;74.99;101076.98;110797;1209;99015;-62
2023/09/28 06:15:56;;;;;;;41.30;20.00;;;;;;;15.31;75.08;101077.98;110519;1209;139058;-62
2023/09/28 06:18:21;;;;;;;44.90;21.80;;;;;;;15.35;75.20;101080.99;110778;1209;99956;-62
2023/09/28 06:20:46;;;;;;;40.00;21.50;;;;;;;15.40;75.29;101082.55;110531;1214;139659;-63
2023/09/28 06:23:14;;;;;;;46.40;22.40;;;;;;;15.45;75.23;101082.09;110707;1209;98972;-63
2023/09/28 06:25:41;;;;;;;35.00;21.60;;;;;;;15.50;75.54;101085.54;110692;1212;99053;-63
2023/09/28 06:28:07;;;;;;;37.30;20.50;;;;;;;15.56;75.40;101089.20;110589;1213;139749;-62
2023/09/28 06:30:32;;;;;;;40.40;22.50;;;;;;;15.60;75.36;101087.55;110771;1209;99002;-62
2023/09/28 06:32:57;;;;;;;41.30;21.20;;;;;;;15.63;75.47;101088.41;110601;1210;140226;-62
2023/09/28 06:35:22;;;;;;;34.70;21.30;;;;;;;15.69;75.47;101090.09;110782;1209;98883;-62
2023/09/28 06:37:49;;;;;;;34.50;21.00;;;;;;;15.74;75.59;101088.33;110712;1213;100304;-63
2023/09/28 06:40:15;;;;;;;33.90;20.50;;;;;;;15.80;75.50;101086.02;110529;1209;139337;-65
2023/09/28 06:42:40;;;;;;;34.90;20.40;;;;;;;15.83;75.54;101083.26;110689;1212;99043;-63
2023/09/28 06:45:06;;;;;;;36.20;20.60;;;;;;;15.88;75.61;101082.80;110450;1210;141022;-62
2023/09/28 06:47:32;;;;;;;40.20;19.40;;;;;;;15.94;75.48;101083.75;110765;1214;98940;-63
2023/09/28 06:49:57;;;;;;;42.10;20.00;;;;;;;16.01;75.64;101084.77;110594;1215;99032;-62
2023/09/28 06:52:23;;;;;;;41.50;21.30;;;;;;;16.07;75.74;101084.94;110605;1209;139834;-63
2023/09/28 06:54:49;;;;;;;35.20;20.40;;;;;;;16.13;75.64;101088.91;110669;1209;99052;-62
2023/09/28 06:57:14;;;;;;;39.70;20.10;;;;;;;16.20;75.69;101090.13;110614;1210;141001;-63
2023/09/28 06:59:39;;;;;;;46.80;19.80;;;;;;;16.26;75.80;101092.48;110571;1209;99110;-63
2023/09/28 07:02:05;;;;;;;33.60;19.50;;;;;;;16.32;75.75;101091.71;110648;1214;98952;-63
2023/09/28 07:04:30;;;;;;;43.50;21.50;;;;;;;16.40;75.91;101091.60;110501;1215;140704;-62
2023/09/28 07:06:56;;;;;;;40.00;18.60;;;;;;;16.48;75.75;101093.65;110666;1208;99000;-62
2023/09/28 07:09:21;;;;;;;39.00;19.10;;;;;;;16.54;75.72;101091.09;110619;1215;141167;-62
2023/09/28 07:11:46;;;;;;;31.90;19.80;;;;;;;16.60;75.73;101090.02;110584;1214;99572;-63
2023/09/28 07:14:12;;;;;;;38.20;19.70;;;;;;;16.66;75.73;101101.61;110722;1214;98962;-63
2023/09/28 07:16:38;;;;;;;37.40;19.60;;;;;;;16.70;75.80;101096.27;110523;1212;138987;-62
2023/09/28 07:19:05;;;;;;;44.00;19.60;;;;;;;16.75;75.82;101098.32;110825;1214;99053;-63
2023/09/28 07:21:30;;;;;;;37.10;20.80;;;;;;;16.82;75.77;101100.44;110515;1209;140033;-63
2023/09/28 07:23:55;;;;;;;43.10;19.30;;;;;;;16.89;75.83;101099.61;110756;1214;99005;-63
2023/09/28 07:26:21;;;;;;;29.30;18.60;;;;;;;16.96;75.44;101100.48;110655;1212;100382;-62
2023/09/28 07:28:48;;;;;;;32.70;18.90;;;;;;;17.01;75.40;101102.87;110587;1209;139350;-62
2023/09/28 07:31:15;;;;;;;36.10;17.40;;;;;;;17.08;75.65;101098.95;110689;1209;99053;-63
2023/09/28 07:33:41;;;;;;;30.40;18.40;;;;;;;17.16;75.56;101100.27;110617;1209;139868;-62
2023/09/28 07:36:07;;;;;;;29.70;17.60;;;;;;;17.24;75.35;101100.87;110640;1210;99100;-63
2023/09/28 07:38:33;;;;;;;33.30;18.20;;;;;;;17.34;75.48;101097.48;110780;1209;97828;-63
2023/09/28 07:41:02;;;;;;;29.50;17.20;;;;;;;17.43;75.32;101096.90;110661;1209;98986;-63
2023/09/28 07:43:28;;;;;;;28.20;16.30;;;;;;;17.53;75.47;101098.45;110590;1214;99391;-63
2023/09/28 07:45:53;;;;;;;36.90;16.30;;;;;;;17.62;75.43;101097.83;110547;1214;139000;-63
2023/09/28 07:48:18;;;;;;;34.60;15.80;;;;;;;17.69;75.20;101095.95;110700;1209;99006;-63
2023/09/28 07:50:44;;;;;;;26.90;13.70;;;;;;;17.77;75.24;101096.16;110532;1214;140240;-63
2023/09/28 07:53:09;;;;;;;32.10;14.90;;;;;;;17.87;75.14;101097.64;110614;1214;99862;-62
2023/09/28 07:55:34;;;;;;;25.70;13.80;;;;;;;17.94;75.16;101095.55;110614;1212;99012;-63
2023/09/28 07:58:00;;;;;;;35.40;15.50;;;;;;;18.01;75.06;101096.87;110519;1210;139564;-63
2023/09/28 08:00:25;;;;;;;26.20;14.70;;;;;;;18.08;74.74;101098.92;110691;1210;98930;-62
2023/09/28 08:02:50;;;;;;;23.60;14.20;;;;;;;18.16;74.99;101098.20;110453;1213;139977;-63
2023/09/28 08:05:15;;;;;;;22.80;14.60;;;;;;;18.28;74.76;101100.84;110650;1214;98936;-62
2023/09/28 08:07:42;;;;;;;29.30;15.20;;;;;;;18.36;74.74;101101.49;110504;1209;98952;-61
2023/09/28 08:10:11;;;;;;;25.80;13.50;;;;;;;18.45;74.58;101098.17;110505;1214;140923;-60
2023/09/28 08:12:37;;;;;;;29.20;14.50;;;;;;;18.55;74.37;101101.14;110677;1214;98981;-61
2023/09/28 08:15:04;;;;;;;21.00;11.00;;;;;;;18.65;74.27;101105.90;110473;1210;139686;-62
2023/09/28 08:17:30;;;;;;;21.30;11.30;;;;;;;18.77;74.25;101108.09;110421;1209;98843;-63
2023/09/28 08:19:56;;;;;;;16.40;10.40;;;;;;;18.91;74.03;101108.04;110560;1208;100544;-60
2023/09/28 08:22:22;;;;;;;22.40;11.90;;;;;;;19.01;73.91;101106.79;110372;1213;141103;-60
2023/09/28 08:24:49;;;;;;;16.70;10.50;;;;;;;19.09;73.79;101103.11;110525;1211;98981;-62
2023/09/28 08:27:14;;;;;;;19.60;10.50;;;;;;;19.20;73.72;101107.41;110397;1210;141104;-62
2023/09/28 08:29:39;;;;;;;17.60;10.90;;;;;;;19.32;73.49;101109.05;110577;1214;98972;-62
2023/09/28 08:32:05;;;;;;;21.50;11.70;;;;;;;19.41;72.96;101114.02;110478;1213;100372;-60
2023/09/28 08:34:32;;;;;;;18.60;11.30;;;;;;;19.56;73.23;101110.94;110578;1209;139749;-60
2023/09/28 08:36:58;;;;;;;25.30;11.40;;;;;;;19.65;72.83;101108.10;110678;1212;99104;-61
2023/09/28 08:39:23;;;;;;;21.10;10.80;;;;;;;19.71;72.72;101098.73;110423;1223;139553;-61
2023/09/28 08:41:55;;;;;;;24.50;10.90;;;;;;;19.79;72.53;101098.38;110624;1213;99028;-61
2023/09/28 08:44:25;;;;;;;17.20;10.30;;;;;;;19.93;72.48;101095.31;110569;1214;104569;-61
2023/09/28 08:46:57;;;;;;;21.00;9.40;;;;;;;20.06;72.27;101095.81;110665;1214;140358;-61
2023/09/28 08:49:25;;;;;;;21.50;10.10;;;;;;;20.17;72.03;101092.43;110621;1212;100011;-61
2023/09/28 08:51:54;;;;;;;23.50;10.10;;;;;;;20.28;71.96;101095.55;110263;1214;140498;-60
2023/09/28 08:54:21;;;;;;;13.50;8.60;;;;;;;20.38;71.63;101097.31;110563;1210;99040;-60
2023/09/28 08:56:48;;;;;;;13.10;8.60;;;;;;;20.46;71.44;101094.53;110302;1214;139149;-61
2023/09/28 08:59:16;;;;;;;17.00;8.60;;;;;;;20.63;70.64;101086.34;110566;1209;98924;-61
2023/09/28 09:01:42;;;;;;;14.60;8.10;;;;;;;20.81;70.62;101081.80;111072;1210;99320;-61
2023/09/28 09:04:08;;;;;;;14.90;7.80;;;;;;;20.90;70.42;101078.83;110348;1213;140709;-61
2023/09/28 09:06:33;;;;;;;12.40;8.10;;;;;;;21.01;70.28;101079.20;110615;1210;98938;-61
2023/09/28 09:09:01;;;;;;;13.10;7.50;;;;;;;21.10;70.05;101078.38;110483;1208;139164;-61
2023/09/28 09:11:29;;;;;;;17.60;8.40;;;;;;;21.18;69.76;101080.41;110626;1214;99678;-60
2023/09/28 09:13:55;;;;;;;18.70;8.70;;;;;;;21.28;69.20;101079.69;110634;1209;100237;-60
2023/09/28 09:16:28;;;;;;;18.20;8.20;;;;;;;21.34;68.85;101077.83;110507;1210;139002;-60
2023/09/28 09:18:55;;;;;;;14.50;7.80;;;;;;;21.40;68.66;101077.17;110833;1209;103822;-61
2023/09/28 09:21:22;;;;;;;15.30;7.40;;;;;;;21.46;68.44;101077.10;110508;1214;139775;-60
2023/09/28 09:24:04;;;;;;;14.40;7.60;;;;;;;21.54;68.07;101074.96;110679;1209;99072;-61
2023/09/28 09:26:47;;;;;;;11.70;8.30;;;;;;;21.60;67.60;101071.52;110606;1208;99159;-63
2023/09/28 09:29:14;;;;;;;16.70;7.30;;;;;;;21.66;67.36;101071.19;110703;1210;98939;-60
2023/09/28 09:31:42;;;;;;;15.60;7.10;;;;;;;21.77;67.11;101069.45;110736;1209;99034;-63
2023/09/28 09:34:17;;;;;;;15.90;7.40;;;;;;;21.85;66.73;101063.24;110558;1212;139457;-61
2023/09/28 09:36:48;;;;;;;16.20;7.60;;;;;;;21.95;66.40;101062.95;110686;1211;99368;-61
2023/09/28 09:39:40;;;;;;;11.20;7.00;;;;;;;22.03;66.15;101065.40;110629;1214;140195;-60
2023/09/28 09:42:05;;;;;;;17.30;6.80;;;;;;;22.11;65.38;101060.16;110524;1212;98993;-61
2023/09/28 09:44:30;;;;;;;13.70;7.50;;;;;;;22.17;65.57;101058.72;110653;1209;99053;-61
2023/09/28 09:46:56;;;;;;;20.10;7.80;;;;;;;22.28;65.22;101060.85;110570;1213;141452;-61
2023/09/28 09:49:24;;;;;;;16.30;7.00;;;;;;;22.37;64.70;101059.24;110582;1208;99033;-60
2023/09/28 09:51:50;;;;;;;14.30;7.70;;;;;;;22.44;64.72;101054.27;110435;1214;141535;-61
2023/09/28 09:54:16;;;;;;;20.20;6.90;;;;;;;22.52;64.70;101052.83;110648;1209;99070;-61
2023/09/28 09:56:44;;;;;;;22.00;6.80;;;;;;;22.63;64.20;101048.21;110519;1210;138678;-61
2023/09/28 09:59:16;;;;;;;15.60;6.40;;;;;;;22.72;63.60;101046.52;110541;1214;99075;-61
2023/09/28 10:01:48;;;;;;;14.00;6.70;;;;;;;22.83;63.39;101043.16;110569;1214;100536;-62
2023/09/28 10:04:18;;;;;;;14.60;6.30;;;;;;;22.92;63.01;101042.94;110485;1209;140409;-60
2023/09/28 10:06:44;;;;;;;13.20;6.50;;;;;;;23.02;62.93;101039.86;110523;1214;100853;-60
2023/09/28 10:09:10;;;;;;;13.20;5.80;;;;;;;23.15;62.54;101045.48;110365;1214;138524;-61
2023/09/28 10:11:40;;;;;;;11.20;6.40;;;;;;;23.26;61.90;101044.95;110643;1209;99064;-61
2023/09/28 10:14:08;;;;;;;18.90;6.50;;;;;;;23.35;61.27;101040.84;110588;1214;99042;-60
2023/09/28 10:16:36;;;;;;;14.40;6.20;;;;;;;23.41;61.11;101040.65;110533;1210;138293;-60
2023/09/28 10:19:04;;;;;;;11.20;6.30;;;;;;;23.48;60.80;101042.06;110600;1211;99070;-62
2023/09/28 10:21:36;;;;;;;15.40;6.40;;;;;;;23.58;60.86;101047.31;110370;1214;138460;-61
2023/09/28 10:24:12;;;;;;;16.10;6.10;;;;;;;23.67;60.53;101052.38;110531;1209;98996;-61
2023/09/28 10:26:42;;;;;;;14.50;5.70;;;;;;;23.76;60.04;101054.45;110590;1213;99042;-60
2023/09/28 10:29:12;;;;;;;17.40;5.80;;;;;;;23.88;59.73;101056.59;110634;1214;104415;-61
2023/09/28 10:31:40;;;;;;;19.80;6.70;;;;;;;23.98;59.47;101057.13;110692;1214;99120;-61
2023/09/28 10:34:06;;;;;;;23.20;6.70;;;;;;;24.08;59.14;101057.27;110456;1214;138826;-61
2023/09/28 10:36:34;;;;;;;17.70;5.70;;;;;;;24.17;58.69;101057.36;110619;1210;99079;-61
2023/09/28 10:39:09;;;;;;;20.00;7.00;;;;;;;24.25;58.16;101062.84;110627;1210;138595;-60
2023/09/28 10:41:37;;;;;;;17.10;5.10;;;;;;;24.36;57.81;101069.64;110677;1214;104478;-60
2023/09/28 10:44:14;;;;;;;16.60;5.40;;;;;;;24.49;56.92;101066.95;110731;1213;100688;-62
2023/09/28 10:46:46;;;;;;;9.40;5.40;;;;;;;24.54;55.95;101061.50;110453;1210;140734;-62
2023/09/28 10:49:14;;;;;;;12.10;5.10;;;;;;;24.59;55.15;101059.19;110664;1212;98998;-62
2023/09/28 10:51:40;;;;;;;12.60;5.50;;;;;;;24.69;54.75;101065.02;110460;1213;138723;-62
2023/09/28 10:54:06;;;;;;;12.10;5.20;;;;;;;24.76;54.31;101067.61;110512;1213;99056;-62
2023/09/28 10:56:31;;;;;;;13.80;4.90;;;;;;;24.77;53.88;101067.34;110617;1209;99007;-61